Pinto, Maryland
Current Conditions -  °F | °C
As of 8:09 PM on Tuesday 21 Oct 2014 (Local Time) from KCBE Reporting Station
Clear Clear  
Wind Chill: 50°   Ceiling: Unl
Heat Index: 50°   Visibility: 10mi
Dew Point: 50°   Wind: 0mph
Humidity: 100%   Direction: NA
Pressure: 29.97"   Gusts: NA
Location:  39.57°N, 78.84°W
Report Text: KCBE 220009Z AUTO 00000KT 10SM CLR 10/10 A2997 RMK AO1
Loading
Personal Weather Stations






























Interactive Weather Map
Tropical Storm Tracking
New forecast layout! Learn more

10-Day Weather Forecast

Advertisements
Track Severe Weather on mobile